sensor_id;sensor_type;location;lat;lon;timestamp;temperature;humidity
56538;DHT22;42435;53.292;6.000;2023-06-26T00:00:14;24.00;61.60
56538;DHT22;42435;53.292;6.000;2023-06-26T00:02:40;24.00;61.60
56538;DHT22;42435;53.292;6.000;2023-06-26T00:05:06;23.90;61.60
56538;DHT22;42435;53.292;6.000;2023-06-26T00:07:34;23.90;61.60
56538;DHT22;42435;53.292;6.000;2023-06-26T00:10:01;23.90;61.60
56538;DHT22;42435;53.292;6.000;2023-06-26T00:12:28;23.90;61.60
56538;DHT22;42435;53.292;6.000;2023-06-26T00:14:53;23.90;61.60
56538;DHT22;42435;53.292;6.000;2023-06-26T00:17:20;23.90;61.60
56538;DHT22;42435;53.292;6.000;2023-06-26T00:19:49;23.90;61.60
56538;DHT22;42435;53.292;6.000;2023-06-26T00:22:15;23.90;61.60
56538;DHT22;42435;53.292;6.000;2023-06-26T00:24:40;24.00;61.60
56538;DHT22;42435;53.292;6.000;2023-06-26T00:27:06;23.90;61.50
56538;DHT22;42435;53.292;6.000;2023-06-26T00:29:32;23.90;61.50
56538;DHT22;42435;53.292;6.000;2023-06-26T00:31:58;23.90;61.50
56538;DHT22;42435;53.292;6.000;2023-06-26T00:34:23;23.90;61.50
56538;DHT22;42435;53.292;6.000;2023-06-26T00:36:49;23.90;61.50
56538;DHT22;42435;53.292;6.000;2023-06-26T00:39:15;23.90;61.50
56538;DHT22;42435;53.292;6.000;2023-06-26T00:41:40;23.90;61.60
56538;DHT22;42435;53.292;6.000;2023-06-26T00:44:06;23.90;61.50
56538;DHT22;42435;53.292;6.000;2023-06-26T00:46:32;23.90;61.40
56538;DHT22;42435;53.292;6.000;2023-06-26T00:49:03;23.90;61.40
56538;DHT22;42435;53.292;6.000;2023-06-26T00:51:30;23.90;61.50
56538;DHT22;42435;53.292;6.000;2023-06-26T00:53:56;23.80;61.50
56538;DHT22;42435;53.292;6.000;2023-06-26T00:56:22;23.90;61.50
56538;DHT22;42435;53.292;6.000;2023-06-26T00:58:48;23.80;61.40
56538;DHT22;42435;53.292;6.000;2023-06-26T01:01:14;23.80;61.40
56538;DHT22;42435;53.292;6.000;2023-06-26T01:03:48;23.80;61.30
56538;DHT22;42435;53.292;6.000;2023-06-26T01:06:18;23.80;61.40
56538;DHT22;42435;53.292;6.000;2023-06-26T01:08:44;23.80;61.20
56538;DHT22;42435;53.292;6.000;2023-06-26T01:11:11;23.80;61.30
56538;DHT22;42435;53.292;6.000;2023-06-26T01:13:37;23.70;61.30
56538;DHT22;42435;53.292;6.000;2023-06-26T01:16:04;23.70;61.40
56538;DHT22;42435;53.292;6.000;2023-06-26T01:18:31;23.70;61.50
56538;DHT22;42435;53.292;6.000;2023-06-26T01:20:58;23.70;61.50
56538;DHT22;42435;53.292;6.000;2023-06-26T01:26:22;23.70;61.70
56538;DHT22;42435;53.292;6.000;2023-06-26T01:28:50;23.70;61.80
56538;DHT22;42435;53.292;6.000;2023-06-26T01:31:17;23.70;61.80
56538;DHT22;42435;53.292;6.000;2023-06-26T01:33:45;23.70;61.90
56538;DHT22;42435;53.292;6.000;2023-06-26T01:36:12;23.70;62.00
56538;DHT22;42435;53.292;6.000;2023-06-26T01:38:37;23.60;62.00
56538;DHT22;42435;53.292;6.000;2023-06-26T01:41:06;23.60;62.00
56538;DHT22;42435;53.292;6.000;2023-06-26T01:46:40;23.60;62.10
56538;DHT22;42435;53.292;6.000;2023-06-26T01:52:22;23.60;61.90
56538;DHT22;42435;53.292;6.000;2023-06-26T01:57:34;23.60;62.00
56538;DHT22;42435;53.292;6.000;2023-06-26T02:00:01;23.60;62.00
56538;DHT22;42435;53.292;6.000;2023-06-26T02:02:28;23.60;62.00
56538;DHT22;42435;53.292;6.000;2023-06-26T02:04:54;23.60;62.20
56538;DHT22;42435;53.292;6.000;2023-06-26T02:07:20;23.50;62.20
56538;DHT22;42435;53.292;6.000;2023-06-26T02:09:45;23.60;62.30
56538;DHT22;42435;53.292;6.000;2023-06-26T02:12:11;23.60;62.40
56538;DHT22;42435;53.292;6.000;2023-06-26T02:14:36;23.60;62.50
56538;DHT22;42435;53.292;6.000;2023-06-26T02:17:02;23.50;62.50
56538;DHT22;42435;53.292;6.000;2023-06-26T02:19:28;23.60;62.60
56538;DHT22;42435;53.292;6.000;2023-06-26T02:21:54;23.50;62.80
56538;DHT22;42435;53.292;6.000;2023-06-26T02:24:20;23.50;63.00
56538;DHT22;42435;53.292;6.000;2023-06-26T02:26:45;23.60;63.00
56538;DHT22;42435;53.292;6.000;2023-06-26T02:29:12;23.50;63.20
56538;DHT22;42435;53.292;6.000;2023-06-26T02:31:37;23.50;63.30
56538;DHT22;42435;53.292;6.000;2023-06-26T02:34:03;23.50;63.50
56538;DHT22;42435;53.292;6.000;2023-06-26T02:36:29;23.40;63.70
56538;DHT22;42435;53.292;6.000;2023-06-26T02:38:55;23.50;63.80
56538;DHT22;42435;53.292;6.000;2023-06-26T02:41:20;23.40;63.90
56538;DHT22;42435;53.292;6.000;2023-06-26T02:43:46;23.40;64.10
56538;DHT22;42435;53.292;6.000;2023-06-26T02:46:12;23.40;64.40
56538;DHT22;42435;53.292;6.000;2023-06-26T02:48:37;23.30;64.50
56538;DHT22;42435;53.292;6.000;2023-06-26T02:51:03;23.30;64.80
56538;DHT22;42435;53.292;6.000;2023-06-26T02:53:28;23.20;65.10
56538;DHT22;42435;53.292;6.000;2023-06-26T02:55:54;23.20;65.30
56538;DHT22;42435;53.292;6.000;2023-06-26T02:58:19;23.20;65.70
56538;DHT22;42435;53.292;6.000;2023-06-26T03:00:45;23.10;66.00
56538;DHT22;42435;53.292;6.000;2023-06-26T03:03:12;23.10;66.30
56538;DHT22;42435;53.292;6.000;2023-06-26T03:05:38;23.00;66.60
56538;DHT22;42435;53.292;6.000;2023-06-26T03:08:04;23.00;66.90
56538;DHT22;42435;53.292;6.000;2023-06-26T03:10:29;23.00;67.00
56538;DHT22;42435;53.292;6.000;2023-06-26T03:12:55;22.90;67.30
56538;DHT22;42435;53.292;6.000;2023-06-26T03:15:20;22.90;67.40
56538;DHT22;42435;53.292;6.000;2023-06-26T03:17:46;22.90;67.60
56538;DHT22;42435;53.292;6.000;2023-06-26T03:20:12;22.90;67.70
56538;DHT22;42435;53.292;6.000;2023-06-26T03:22:37;22.90;67.80
56538;DHT22;42435;53.292;6.000;2023-06-26T03:25:03;22.80;68.00
56538;DHT22;42435;53.292;6.000;2023-06-26T03:27:30;22.80;68.20
56538;DHT22;42435;53.292;6.000;2023-06-26T03:29:55;22.80;68.40
56538;DHT22;42435;53.292;6.000;2023-06-26T03:32:21;22.80;68.50
56538;DHT22;42435;53.292;6.000;2023-06-26T03:34:46;22.70;68.70
56538;DHT22;42435;53.292;6.000;2023-06-26T03:37:12;22.70;68.80
56538;DHT22;42435;53.292;6.000;2023-06-26T03:39:38;22.70;69.00
56538;DHT22;42435;53.292;6.000;2023-06-26T03:42:03;22.70;69.20
56538;DHT22;42435;53.292;6.000;2023-06-26T03:44:29;22.70;69.40
56538;DHT22;42435;53.292;6.000;2023-06-26T03:46:55;22.60;69.60
56538;DHT22;42435;53.292;6.000;2023-06-26T03:49:20;22.60;69.80
56538;DHT22;42435;53.292;6.000;2023-06-26T03:51:46;22.60;69.90
56538;DHT22;42435;53.292;6.000;2023-06-26T03:54:12;22.60;70.10
56538;DHT22;42435;53.292;6.000;2023-06-26T03:56:37;22.60;70.20
56538;DHT22;42435;53.292;6.000;2023-06-26T03:59:03;22.60;70.30
56538;DHT22;42435;53.292;6.000;2023-06-26T04:01:29;22.50;70.60
56538;DHT22;42435;53.292;6.000;2023-06-26T04:03:54;22.50;71.00
56538;DHT22;42435;53.292;6.000;2023-06-26T04:06:20;22.50;71.60
56538;DHT22;42435;53.292;6.000;2023-06-26T04:08:46;22.40;72.60
56538;DHT22;42435;53.292;6.000;2023-06-26T04:11:11;22.40;73.20
56538;DHT22;42435;53.292;6.000;2023-06-26T04:13:37;22.20;73.80
56538;DHT22;42435;53.292;6.000;2023-06-26T04:16:03;22.10;74.40
56538;DHT22;42435;53.292;6.000;2023-06-26T04:18:29;22.00;74.80
56538;DHT22;42435;53.292;6.000;2023-06-26T04:21:13;22.00;75.20
56538;DHT22;42435;53.292;6.000;2023-06-26T04:23:40;21.90;75.70
56538;DHT22;42435;53.292;6.000;2023-06-26T04:26:06;21.90;75.80
56538;DHT22;42435;53.292;6.000;2023-06-26T04:28:36;21.80;76.00
56538;DHT22;42435;53.292;6.000;2023-06-26T04:31:02;21.70;76.10
56538;DHT22;42435;53.292;6.000;2023-06-26T04:33:29;21.60;76.10
56538;DHT22;42435;53.292;6.000;2023-06-26T04:35:55;21.50;76.10
56538;DHT22;42435;53.292;6.000;2023-06-26T04:38:21;21.40;76.30
56538;DHT22;42435;53.292;6.000;2023-06-26T04:40:47;21.40;76.50
56538;DHT22;42435;53.292;6.000;2023-06-26T04:43:13;21.30;76.60
56538;DHT22;42435;53.292;6.000;2023-06-26T04:45:41;21.20;76.70
56538;DHT22;42435;53.292;6.000;2023-06-26T04:48:07;21.20;76.90
56538;DHT22;42435;53.292;6.000;2023-06-26T04:50:34;21.10;76.90
56538;DHT22;42435;53.292;6.000;2023-06-26T04:53:00;21.10;77.10
56538;DHT22;42435;53.292;6.000;2023-06-26T04:55:28;21.00;77.10
56538;DHT22;42435;53.292;6.000;2023-06-26T04:57:54;21.00;77.40
56538;DHT22;42435;53.292;6.000;2023-06-26T05:00:20;20.90;77.50
56538;DHT22;42435;53.292;6.000;2023-06-26T05:02:45;20.90;77.60
56538;DHT22;42435;53.292;6.000;2023-06-26T05:05:13;20.90;77.90
56538;DHT22;42435;53.292;6.000;2023-06-26T05:07:41;20.80;78.20
56538;DHT22;42435;53.292;6.000;2023-06-26T05:10:11;20.80;78.30
56538;DHT22;42435;53.292;6.000;2023-06-26T05:12:37;20.70;78.30
56538;DHT22;42435;53.292;6.000;2023-06-26T05:15:02;20.70;78.30
56538;DHT22;42435;53.292;6.000;2023-06-26T05:17:31;20.70;78.40
56538;DHT22;42435;53.292;6.000;2023-06-26T05:19:57;20.70;78.30
56538;DHT22;42435;53.292;6.000;2023-06-26T05:22:23;20.60;78.30
56538;DHT22;42435;53.292;6.000;2023-06-26T05:24:50;20.70;78.30
56538;DHT22;42435;53.292;6.000;2023-06-26T05:27:18;20.70;78.50
56538;DHT22;42435;53.292;6.000;2023-06-26T05:29:48;20.70;78.30
56538;DHT22;42435;53.292;6.000;2023-06-26T05:32:15;20.70;78.20
56538;DHT22;42435;53.292;6.000;2023-06-26T05:34:47;20.70;78.10
56538;DHT22;42435;53.292;6.000;2023-06-26T05:37:17;20.70;78.00
56538;DHT22;42435;53.292;6.000;2023-06-26T05:39:46;20.70;78.10
56538;DHT22;42435;53.292;6.000;2023-06-26T05:42:12;20.70;78.20
56538;DHT22;42435;53.292;6.000;2023-06-26T05:44:38;20.80;78.20
56538;DHT22;42435;53.292;6.000;2023-06-26T05:47:03;20.80;78.30
56538;DHT22;42435;53.292;6.000;2023-06-26T05:49:29;20.90;78.20
56538;DHT22;42435;53.292;6.000;2023-06-26T05:51:55;20.90;77.90
56538;DHT22;42435;53.292;6.000;2023-06-26T05:54:21;20.90;77.60
56538;DHT22;42435;53.292;6.000;2023-06-26T05:56:48;20.90;77.30
56538;DHT22;42435;53.292;6.000;2023-06-26T05:59:15;21.00;77.00
56538;DHT22;42435;53.292;6.000;2023-06-26T06:01:40;21.00;76.80
56538;DHT22;42435;53.292;6.000;2023-06-26T06:04:06;21.10;76.50
56538;DHT22;42435;53.292;6.000;2023-06-26T06:06:32;21.20;76.00
56538;DHT22;42435;53.292;6.000;2023-06-26T06:08:57;21.40;75.40
56538;DHT22;42435;53.292;6.000;2023-06-26T06:11:23;21.50;74.50
56538;DHT22;42435;53.292;6.000;2023-06-26T06:13:49;21.60;73.90
56538;DHT22;42435;53.292;6.000;2023-06-26T06:16:15;21.70;73.60
56538;DHT22;42435;53.292;6.000;2023-06-26T06:18:41;22.00;72.80
56538;DHT22;42435;53.292;6.000;2023-06-26T06:21:06;22.20;71.70
56538;DHT22;42435;53.292;6.000;2023-06-26T06:23:32;22.40;70.80
56538;DHT22;42435;53.292;6.000;2023-06-26T06:25:57;22.70;69.20
56538;DHT22;42435;53.292;6.000;2023-06-26T06:28:25;22.90;68.60
56538;DHT22;42435;53.292;6.000;2023-06-26T06:30:51;23.20;67.90
56538;DHT22;42435;53.292;6.000;2023-06-26T06:33:16;23.30;66.30
56538;DHT22;42435;53.292;6.000;2023-06-26T06:35:42;23.20;66.20
56538;DHT22;42435;53.292;6.000;2023-06-26T06:38:07;23.00;66.00
56538;DHT22;42435;53.292;6.000;2023-06-26T06:40:33;22.80;66.40
56538;DHT22;42435;53.292;6.000;2023-06-26T06:42:59;22.70;66.40
56538;DHT22;42435;53.292;6.000;2023-06-26T06:45:24;22.70;67.10
56538;DHT22;42435;53.292;6.000;2023-06-26T06:47:50;22.80;66.70
56538;DHT22;42435;53.292;6.000;2023-06-26T06:50:15;22.80;66.00
56538;DHT22;42435;53.292;6.000;2023-06-26T06:52:44;22.70;66.10
56538;DHT22;42435;53.292;6.000;2023-06-26T06:55:10;22.80;66.90
56538;DHT22;42435;53.292;6.000;2023-06-26T06:57:36;22.90;66.20
56538;DHT22;42435;53.292;6.000;2023-06-26T07:00:12;23.00;65.70
56538;DHT22;42435;53.292;6.000;2023-06-26T07:02:41;23.20;64.80
56538;DHT22;42435;53.292;6.000;2023-06-26T07:05:08;23.30;64.90
56538;DHT22;42435;53.292;6.000;2023-06-26T07:07:36;23.40;64.60
56538;DHT22;42435;53.292;6.000;2023-06-26T07:10:12;23.50;64.40
56538;DHT22;42435;53.292;6.000;2023-06-26T07:12:38;23.40;64.20
56538;DHT22;42435;53.292;6.000;2023-06-26T07:15:05;23.40;64.20
56538;DHT22;42435;53.292;6.000;2023-06-26T07:17:39;23.40;64.70
56538;DHT22;42435;53.292;6.000;2023-06-26T07:20:05;23.40;64.90
56538;DHT22;42435;53.292;6.000;2023-06-26T07:22:34;23.30;65.00
56538;DHT22;42435;53.292;6.000;2023-06-26T07:24:59;23.50;64.90
56538;DHT22;42435;53.292;6.000;2023-06-26T07:27:25;23.60;64.30
56538;DHT22;42435;53.292;6.000;2023-06-26T07:29:51;23.70;63.90
56538;DHT22;42435;53.292;6.000;2023-06-26T07:32:16;23.80;63.90
56538;DHT22;42435;53.292;6.000;2023-06-26T07:34:42;23.80;63.30
56538;DHT22;42435;53.292;6.000;2023-06-26T07:37:08;23.70;63.20
56538;DHT22;42435;53.292;6.000;2023-06-26T07:39:33;23.70;63.50
56538;DHT22;42435;53.292;6.000;2023-06-26T07:41:59;23.60;63.60
56538;DHT22;42435;53.292;6.000;2023-06-26T07:44:25;23.50;63.60
56538;DHT22;42435;53.292;6.000;2023-06-26T07:46:50;23.40;63.80
56538;DHT22;42435;53.292;6.000;2023-06-26T07:49:19;23.40;63.80
56538;DHT22;42435;53.292;6.000;2023-06-26T07:51:44;23.40;63.80
56538;DHT22;42435;53.292;6.000;2023-06-26T07:54:10;23.50;63.60
56538;DHT22;42435;53.292;6.000;2023-06-26T07:56:53;23.40;63.00
56538;DHT22;42435;53.292;6.000;2023-06-26T07:59:20;23.30;63.00
56538;DHT22;42435;53.292;6.000;2023-06-26T08:01:47;23.20;63.80
56538;DHT22;42435;53.292;6.000;2023-06-26T08:04:13;23.30;63.50
56538;DHT22;42435;53.292;6.000;2023-06-26T08:06:41;23.40;63.10
56538;DHT22;42435;53.292;6.000;2023-06-26T08:09:07;23.40;63.60
56538;DHT22;42435;53.292;6.000;2023-06-26T08:11:35;23.50;63.10
56538;DHT22;42435;53.292;6.000;2023-06-26T08:14:01;23.50;61.90
56538;DHT22;42435;53.292;6.000;2023-06-26T08:16:29;23.40;61.90
56538;DHT22;42435;53.292;6.000;2023-06-26T08:18:54;23.30;62.30
56538;DHT22;42435;53.292;6.000;2023-06-26T08:21:20;23.30;62.30
56538;DHT22;42435;53.292;6.000;2023-06-26T08:23:46;23.20;62.50
56538;DHT22;42435;53.292;6.000;2023-06-26T08:26:13;23.20;62.10
56538;DHT22;42435;53.292;6.000;2023-06-26T08:28:38;23.00;62.40
56538;DHT22;42435;53.292;6.000;2023-06-26T08:31:06;23.00;63.00
56538;DHT22;42435;53.292;6.000;2023-06-26T08:33:34;23.10;63.00
56538;DHT22;42435;53.292;6.000;2023-06-26T08:36:00;23.10;62.60
56538;DHT22;42435;53.292;6.000;2023-06-26T08:38:25;23.00;62.40
56538;DHT22;42435;53.292;6.000;2023-06-26T08:40:51;23.00;62.30
56538;DHT22;42435;53.292;6.000;2023-06-26T08:43:19;23.00;62.10
56538;DHT22;42435;53.292;6.000;2023-06-26T08:45:47;23.00;62.00
56538;DHT22;42435;53.292;6.000;2023-06-26T08:48:17;23.00;61.90
56538;DHT22;42435;53.292;6.000;2023-06-26T08:50:43;23.00;62.20
56538;DHT22;42435;53.292;6.000;2023-06-26T08:53:39;23.10;61.90
56538;DHT22;42435;53.292;6.000;2023-06-26T08:56:07;23.10;62.00
56538;DHT22;42435;53.292;6.000;2023-06-26T08:58:32;23.20;62.00
56538;DHT22;42435;53.292;6.000;2023-06-26T09:00:59;23.20;62.00
56538;DHT22;42435;53.292;6.000;2023-06-26T09:03:25;23.20;62.10
56538;DHT22;42435;53.292;6.000;2023-06-26T09:05:51;23.20;61.60
56538;DHT22;42435;53.292;6.000;2023-06-26T09:08:17;23.20;61.60
56538;DHT22;42435;53.292;6.000;2023-06-26T09:10:45;23.30;61.30
56538;DHT22;42435;53.292;6.000;2023-06-26T09:13:11;23.40;61.50
56538;DHT22;42435;53.292;6.000;2023-06-26T09:15:38;23.50;61.10
56538;DHT22;42435;53.292;6.000;2023-06-26T09:18:05;23.40;60.50
56538;DHT22;42435;53.292;6.000;2023-06-26T09:20:31;23.40;59.90
56538;DHT22;42435;53.292;6.000;2023-06-26T09:22:59;23.40;60.20
56538;DHT22;42435;53.292;6.000;2023-06-26T09:25:25;23.30;60.00
56538;DHT22;42435;53.292;6.000;2023-06-26T09:27:52;23.30;60.10
56538;DHT22;42435;53.292;6.000;2023-06-26T09:30:18;23.30;60.00
56538;DHT22;42435;53.292;6.000;2023-06-26T09:32:44;23.30;59.60
56538;DHT22;42435;53.292;6.000;2023-06-26T09:35:10;23.20;59.90
56538;DHT22;42435;53.292;6.000;2023-06-26T09:37:35;23.20;59.70
56538;DHT22;42435;53.292;6.000;2023-06-26T09:40:01;23.20;59.90
56538;DHT22;42435;53.292;6.000;2023-06-26T09:42:29;23.30;59.70
56538;DHT22;42435;53.292;6.000;2023-06-26T09:44:55;23.40;59.70
56538;DHT22;42435;53.292;6.000;2023-06-26T09:47:21;23.50;59.70
56538;DHT22;42435;53.292;6.000;2023-06-26T09:49:48;23.60;59.50
56538;DHT22;42435;53.292;6.000;2023-06-26T09:52:18;23.70;58.70
56538;DHT22;42435;53.292;6.000;2023-06-26T09:54:45;23.70;58.20
56538;DHT22;42435;53.292;6.000;2023-06-26T09:57:17;23.70;58.20
56538;DHT22;42435;53.292;6.000;2023-06-26T09:59:45;23.60;58.40
56538;DHT22;42435;53.292;6.000;2023-06-26T10:02:11;23.70;58.30
56538;DHT22;42435;53.292;6.000;2023-06-26T10:04:37;23.80;58.20
56538;DHT22;42435;53.292;6.000;2023-06-26T10:07:10;23.90;57.70
56538;DHT22;42435;53.292;6.000;2023-06-26T10:09:42;23.90;57.70
56538;DHT22;42435;53.292;6.000;2023-06-26T10:14:41;24.00;56.30
56538;DHT22;42435;53.292;6.000;2023-06-26T10:17:10;24.00;56.40
56538;DHT22;42435;53.292;6.000;2023-06-26T10:19:39;24.20;56.10
56538;DHT22;42435;53.292;6.000;2023-06-26T10:22:07;24.20;56.00
56538;DHT22;42435;53.292;6.000;2023-06-26T10:24:35;24.30;56.20
56538;DHT22;42435;53.292;6.000;2023-06-26T10:27:09;24.30;56.10
56538;DHT22;42435;53.292;6.000;2023-06-26T10:29:36;24.40;55.40
56538;DHT22;42435;53.292;6.000;2023-06-26T10:32:03;24.40;54.40
56538;DHT22;42435;53.292;6.000;2023-06-26T10:34:30;24.50;54.00
56538;DHT22;42435;53.292;6.000;2023-06-26T10:37:02;24.80;53.90
56538;DHT22;42435;53.292;6.000;2023-06-26T10:39:47;25.00;53.60
56538;DHT22;42435;53.292;6.000;2023-06-26T10:42:18;25.30;53.30
56538;DHT22;42435;53.292;6.000;2023-06-26T10:44:46;25.50;53.20
56538;DHT22;42435;53.292;6.000;2023-06-26T10:47:29;25.60;53.10
56538;DHT22;42435;53.292;6.000;2023-06-26T10:52:43;26.00;51.30
56538;DHT22;42435;53.292;6.000;2023-06-26T10:55:09;26.00;51.80
56538;DHT22;42435;53.292;6.000;2023-06-26T10:57:36;25.90;51.80
56538;DHT22;42435;53.292;6.000;2023-06-26T11:00:11;26.00;50.80
56538;DHT22;42435;53.292;6.000;2023-06-26T11:02:52;25.90;50.30
56538;DHT22;42435;53.292;6.000;2023-06-26T11:05:33;25.90;50.60
56538;DHT22;42435;53.292;6.000;2023-06-26T11:08:07;25.80;50.60
56538;DHT22;42435;53.292;6.000;2023-06-26T11:10:53;25.70;50.50
56538;DHT22;42435;53.292;6.000;2023-06-26T11:13:21;25.70;50.90
56538;DHT22;42435;53.292;6.000;2023-06-26T11:15:47;25.60;51.00
56538;DHT22;42435;53.292;6.000;2023-06-26T11:18:17;25.70;51.10
56538;DHT22;42435;53.292;6.000;2023-06-26T11:20:46;25.60;51.10
56538;DHT22;42435;53.292;6.000;2023-06-26T11:23:12;25.70;51.20
56538;DHT22;42435;53.292;6.000;2023-06-26T11:25:40;25.80;51.00
56538;DHT22;42435;53.292;6.000;2023-06-26T11:28:09;25.90;50.50
56538;DHT22;42435;53.292;6.000;2023-06-26T11:30:35;26.00;50.20
56538;DHT22;42435;53.292;6.000;2023-06-26T11:33:08;26.20;50.30
56538;DHT22;42435;53.292;6.000;2023-06-26T11:35:34;26.30;49.70
56538;DHT22;42435;53.292;6.000;2023-06-26T11:38:01;26.40;49.80
56538;DHT22;42435;53.292;6.000;2023-06-26T11:40:29;26.20;49.70
56538;DHT22;42435;53.292;6.000;2023-06-26T11:43:00;25.90;49.30
56538;DHT22;42435;53.292;6.000;2023-06-26T11:45:33;25.50;49.60
56538;DHT22;42435;53.292;6.000;2023-06-26T11:48:02;25.10;50.40
56538;DHT22;42435;53.292;6.000;2023-06-26T11:50:28;25.00;50.90
56538;DHT22;42435;53.292;6.000;2023-06-26T11:52:57;24.90;51.30
56538;DHT22;42435;53.292;6.000;2023-06-26T11:55:24;24.80;51.30
56538;DHT22;42435;53.292;6.000;2023-06-26T11:57:50;24.80;52.00
56538;DHT22;42435;53.292;6.000;2023-06-26T12:00:18;24.70;51.90
56538;DHT22;42435;53.292;6.000;2023-06-26T12:02:45;24.70;51.80
56538;DHT22;42435;53.292;6.000;2023-06-26T12:05:12;24.70;51.80
56538;DHT22;42435;53.292;6.000;2023-06-26T12:07:38;24.80;51.70
56538;DHT22;42435;53.292;6.000;2023-06-26T12:10:05;24.70;51.80
56538;DHT22;42435;53.292;6.000;2023-06-26T12:12:32;24.60;52.30
56538;DHT22;42435;53.292;6.000;2023-06-26T12:14:58;24.80;52.70
56538;DHT22;42435;53.292;6.000;2023-06-26T12:17:25;24.70;53.00
56538;DHT22;42435;53.292;6.000;2023-06-26T12:19:51;24.80;52.90
56538;DHT22;42435;53.292;6.000;2023-06-26T12:22:17;24.90;52.70
56538;DHT22;42435;53.292;6.000;2023-06-26T12:24:44;24.80;52.50
56538;DHT22;42435;53.292;6.000;2023-06-26T12:27:12;24.90;52.50
56538;DHT22;42435;53.292;6.000;2023-06-26T12:29:40;24.90;52.60
56538;DHT22;42435;53.292;6.000;2023-06-26T12:32:10;25.00;52.40
56538;DHT22;42435;53.292;6.000;2023-06-26T12:34:39;25.00;52.00
56538;DHT22;42435;53.292;6.000;2023-06-26T12:37:06;24.90;52.20
56538;DHT22;42435;53.292;6.000;2023-06-26T12:39:53;24.90;51.90
56538;DHT22;42435;53.292;6.000;2023-06-26T12:42:27;24.90;51.90
56538;DHT22;42435;53.292;6.000;2023-06-26T12:44:53;24.80;51.40
56538;DHT22;42435;53.292;6.000;2023-06-26T12:47:27;24.60;51.30
56538;DHT22;42435;53.292;6.000;2023-06-26T12:49:56;24.60;52.00
56538;DHT22;42435;53.292;6.000;2023-06-26T12:52:23;24.70;52.10
56538;DHT22;42435;53.292;6.000;2023-06-26T12:54:53;24.60;52.70
56538;DHT22;42435;53.292;6.000;2023-06-26T12:57:21;24.60;53.10
56538;DHT22;42435;53.292;6.000;2023-06-26T12:59:48;24.60;53.10
56538;DHT22;42435;53.292;6.000;2023-06-26T13:02:14;24.60;53.40
56538;DHT22;42435;53.292;6.000;2023-06-26T13:04:45;24.70;53.60
56538;DHT22;42435;53.292;6.000;2023-06-26T13:07:11;24.80;53.80
56538;DHT22;42435;53.292;6.000;2023-06-26T13:09:37;24.90;53.40
56538;DHT22;42435;53.292;6.000;2023-06-26T13:12:06;24.90;53.00
56538;DHT22;42435;53.292;6.000;2023-06-26T13:14:32;25.10;52.50
56538;DHT22;42435;53.292;6.000;2023-06-26T13:16:59;25.10;51.40
56538;DHT22;42435;53.292;6.000;2023-06-26T13:19:25;25.00;51.90
56538;DHT22;42435;53.292;6.000;2023-06-26T13:21:51;24.90;51.80
56538;DHT22;42435;53.292;6.000;2023-06-26T13:24:16;24.90;52.10
56538;DHT22;42435;53.292;6.000;2023-06-26T13:26:42;24.90;52.40
56538;DHT22;42435;53.292;6.000;2023-06-26T13:29:11;24.80;52.60
56538;DHT22;42435;53.292;6.000;2023-06-26T13:31:36;24.60;52.40
56538;DHT22;42435;53.292;6.000;2023-06-26T13:34:04;24.50;52.80
56538;DHT22;42435;53.292;6.000;2023-06-26T13:36:30;24.50;53.20
56538;DHT22;42435;53.292;6.000;2023-06-26T13:39:00;24.40;53.70
56538;DHT22;42435;53.292;6.000;2023-06-26T13:41:28;24.40;53.20
56538;DHT22;42435;53.292;6.000;2023-06-26T13:43:54;24.40;52.80
56538;DHT22;42435;53.292;6.000;2023-06-26T13:46:20;24.20;53.00
56538;DHT22;42435;53.292;6.000;2023-06-26T13:48:45;24.40;53.10
56538;DHT22;42435;53.292;6.000;2023-06-26T13:51:12;24.40;52.20
56538;DHT22;42435;53.292;6.000;2023-06-26T13:53:39;24.40;52.00
56538;DHT22;42435;53.292;6.000;2023-06-26T13:56:04;24.40;52.60
56538;DHT22;42435;53.292;6.000;2023-06-26T13:58:30;24.30;52.60
56538;DHT22;42435;53.292;6.000;2023-06-26T14:00:58;24.20;52.50
56538;DHT22;42435;53.292;6.000;2023-06-26T14:03:23;24.20;52.50
56538;DHT22;42435;53.292;6.000;2023-06-26T14:05:49;24.20;52.40
56538;DHT22;42435;53.292;6.000;2023-06-26T14:08:14;24.20;52.70
56538;DHT22;42435;53.292;6.000;2023-06-26T14:10:40;24.20;52.20
56538;DHT22;42435;53.292;6.000;2023-06-26T14:13:06;24.20;52.90
56538;DHT22;42435;53.292;6.000;2023-06-26T14:15:33;24.20;52.90
56538;DHT22;42435;53.292;6.000;2023-06-26T14:18:00;24.20;52.60
56538;DHT22;42435;53.292;6.000;2023-06-26T14:20:28;24.10;52.80
56538;DHT22;42435;53.292;6.000;2023-06-26T14:22:54;24.00;53.10
56538;DHT22;42435;53.292;6.000;2023-06-26T14:25:20;23.90;53.30
56538;DHT22;42435;53.292;6.000;2023-06-26T14:27:45;23.90;53.40
56538;DHT22;42435;53.292;6.000;2023-06-26T14:30:11;23.70;53.70
56538;DHT22;42435;53.292;6.000;2023-06-26T14:32:37;23.60;53.60
56538;DHT22;42435;53.292;6.000;2023-06-26T14:35:03;23.50;53.20
56538;DHT22;42435;53.292;6.000;2023-06-26T14:37:30;23.40;53.20
56538;DHT22;42435;53.292;6.000;2023-06-26T14:39:56;23.30;53.30
56538;DHT22;42435;53.292;6.000;2023-06-26T14:42:23;23.20;53.50
56538;DHT22;42435;53.292;6.000;2023-06-26T14:44:49;23.10;53.70
56538;DHT22;42435;53.292;6.000;2023-06-26T14:47:16;23.10;53.80
56538;DHT22;42435;53.292;6.000;2023-06-26T14:49:42;23.00;54.20
56538;DHT22;42435;53.292;6.000;2023-06-26T14:52:08;22.90;54.70
56538;DHT22;42435;53.292;6.000;2023-06-26T14:54:34;22.90;55.40
56538;DHT22;42435;53.292;6.000;2023-06-26T14:57:04;23.00;54.70
56538;DHT22;42435;53.292;6.000;2023-06-26T14:59:31;23.00;53.70
56538;DHT22;42435;53.292;6.000;2023-06-26T15:01:57;23.00;53.00
56538;DHT22;42435;53.292;6.000;2023-06-26T15:04:22;23.00;53.10
56538;DHT22;42435;53.292;6.000;2023-06-26T15:06:48;23.00;52.80
56538;DHT22;42435;53.292;6.000;2023-06-26T15:09:14;23.00;52.70
56538;DHT22;42435;53.292;6.000;2023-06-26T15:11:39;23.00;52.60
56538;DHT22;42435;53.292;6.000;2023-06-26T15:14:05;23.00;52.80
56538;DHT22;42435;53.292;6.000;2023-06-26T15:16:30;23.00;52.90
56538;DHT22;42435;53.292;6.000;2023-06-26T15:18:56;23.00;52.90
56538;DHT22;42435;53.292;6.000;2023-06-26T15:21:22;23.10;53.10
56538;DHT22;42435;53.292;6.000;2023-06-26T15:23:47;23.20;52.90
56538;DHT22;42435;53.292;6.000;2023-06-26T15:26:17;23.40;52.70
56538;DHT22;42435;53.292;6.000;2023-06-26T15:28:45;23.40;52.60
56538;DHT22;42435;53.292;6.000;2023-06-26T15:31:11;23.60;52.00
56538;DHT22;42435;53.292;6.000;2023-06-26T15:33:36;23.70;51.90
56538;DHT22;42435;53.292;6.000;2023-06-26T15:36:04;23.80;51.50
56538;DHT22;42435;53.292;6.000;2023-06-26T15:38:30;23.90;51.20
56538;DHT22;42435;53.292;6.000;2023-06-26T15:40:56;23.90;51.50
56538;DHT22;42435;53.292;6.000;2023-06-26T15:43:22;24.00;51.30
56538;DHT22;42435;53.292;6.000;2023-06-26T15:45:47;24.00;51.50